YMA7002 NZWP-YSNF
Flight info
| Callsign | YMA7002 |
|---|---|
| Flight time | N/A |
| Altitude | 17000 |
| Route | KT G591 ABVOM |
| Aircraft | DH8D/M-SDE2E3FGRY/H |
Departure
| Time | N/A |
|---|---|
| Airport | RNZAF Base Auckland-Whenuapai (NZWP) |
Arrival
| Time | 2026-04-18 05:43 |
|---|---|
| Airport | Norfolk Island International Airport (YSNF) |
| Time | Latitude | Longitude | Altitude | Speed | Heading |
|---|---|---|---|---|---|
| 2026-04-18 05:29 | -29.53177 | 168.33270 | 8935 ft | 267 kts | 323° |
| 2026-04-18 05:29 | -29.52008 | 168.32310 | 8698 ft | 266 kts | 323° |
| 2026-04-18 05:29 | -29.50492 | 168.31055 | 8373 ft | 266 kts | 322° |
| 2026-04-18 05:30 | -29.49010 | 168.29820 | 8048 ft | 260 kts | 322° |
| 2026-04-18 05:30 | -29.47574 | 168.28628 | 7736 ft | 254 kts | 323° |
| 2026-04-18 05:30 | -29.46160 | 168.27455 | 7495 ft | 246 kts | 322° |
| 2026-04-18 05:30 | -29.44781 | 168.26312 | 7211 ft | 242 kts | 322° |
| 2026-04-18 05:31 | -29.43432 | 168.25191 | 6924 ft | 238 kts | 322° |
| 2026-04-18 05:31 | -29.42105 | 168.24087 | 6639 ft | 235 kts | 323° |
| 2026-04-18 05:31 | -29.40782 | 168.22989 | 6355 ft | 232 kts | 322° |
| 2026-04-18 05:31 | -29.39492 | 168.21918 | 6078 ft | 230 kts | 322° |
| 2026-04-18 05:32 | -29.38197 | 168.20845 | 5793 ft | 226 kts | 323° |
| 2026-04-18 05:32 | -29.36929 | 168.19807 | 5509 ft | 223 kts | 326° |
| 2026-04-18 05:32 | -29.35679 | 168.18777 | 5289 ft | 217 kts | 323° |
| 2026-04-18 05:32 | -29.34436 | 168.17802 | 4905 ft | 216 kts | 330° |
| 2026-04-18 05:33 | -29.33066 | 168.17175 | 4700 ft | 210 kts | 340° |
| 2026-04-18 05:33 | -29.31678 | 168.16695 | 4467 ft | 206 kts | 340° |
| 2026-04-18 05:33 | -29.30302 | 168.16219 | 4211 ft | 202 kts | 340° |
| 2026-04-18 05:33 | -29.28975 | 168.15759 | 3971 ft | 197 kts | 340° |
| 2026-04-18 05:34 | -29.27673 | 168.15305 | 3732 ft | 193 kts | 341° |
| 2026-04-18 05:34 | -29.26404 | 168.14865 | 3501 ft | 188 kts | 340° |
| 2026-04-18 05:34 | -29.25159 | 168.14421 | 3272 ft | 184 kts | 340° |
| 2026-04-18 05:34 | -29.23950 | 168.13992 | 3058 ft | 179 kts | 340° |
| 2026-04-18 05:35 | -29.22777 | 168.13576 | 2836 ft | 174 kts | 339° |
| 2026-04-18 05:35 | -29.21644 | 168.13159 | 2631 ft | 166 kts | 339° |
| 2026-04-18 05:35 | -29.20567 | 168.12767 | 2465 ft | 157 kts | 339° |
| 2026-04-18 05:35 | -29.19583 | 168.12386 | 2400 ft | 142 kts | 338° |
| 2026-04-18 05:36 | -29.18713 | 168.12041 | 2337 ft | 123 kts | 337° |
| 2026-04-18 05:36 | -29.17952 | 168.11740 | 2302 ft | 112 kts | 338° |
| 2026-04-18 05:36 | -29.17205 | 168.11453 | 2283 ft | 114 kts | 338° |
| 2026-04-18 05:36 | -29.16452 | 168.11163 | 2256 ft | 112 kts | 337° |
| 2026-04-18 05:37 | -29.15706 | 168.10873 | 2195 ft | 114 kts | 337° |
| 2026-04-18 05:37 | -29.14954 | 168.10579 | 2192 ft | 115 kts | 336° |
| 2026-04-18 05:37 | -29.14193 | 168.10283 | 2159 ft | 117 kts | 337° |
| 2026-04-18 05:37 | -29.13412 | 168.09979 | 2117 ft | 117 kts | 335° |
| 2026-04-18 05:38 | -29.12767 | 168.09457 | 2076 ft | 113 kts | 307° |
| 2026-04-18 05:38 | -29.12333 | 168.08727 | 2072 ft | 109 kts | 304° |
| 2026-04-18 05:38 | -29.11915 | 168.07980 | 2000 ft | 111 kts | 304° |
| 2026-04-18 05:38 | -29.11504 | 168.07248 | 1953 ft | 112 kts | 304° |
| 2026-04-18 05:39 | -29.11087 | 168.06505 | 1960 ft | 111 kts | 303° |
| 2026-04-18 05:39 | -29.10666 | 168.05753 | 1997 ft | 110 kts | 303° |
| 2026-04-18 05:39 | -29.10247 | 168.04994 | 1987 ft | 113 kts | 303° |
| 2026-04-18 05:39 | -29.09824 | 168.04233 | 2000 ft | 115 kts | 303° |
| 2026-04-18 05:40 | -29.09388 | 168.03448 | 2004 ft | 118 kts | 303° |
| 2026-04-18 05:40 | -29.08942 | 168.02640 | 2003 ft | 123 kts | 302° |
| 2026-04-18 05:40 | -29.08464 | 168.01769 | 1861 ft | 134 kts | 302° |
| 2026-04-18 05:40 | -29.07972 | 168.00864 | 1682 ft | 132 kts | 302° |
| 2026-04-18 05:41 | -29.07484 | 167.99974 | 1502 ft | 131 kts | 302° |
| 2026-04-18 05:41 | -29.07011 | 167.99106 | 1295 ft | 126 kts | 302° |
| 2026-04-18 05:41 | -29.06564 | 167.98294 | 1111 ft | 121 kts | 302° |
| 2026-04-18 05:41 | -29.06112 | 167.97487 | 968 ft | 120 kts | 301° |
| 2026-04-18 05:42 | -29.05662 | 167.96678 | 786 ft | 118 kts | 300° |
| 2026-04-18 05:42 | -29.05235 | 167.95900 | 669 ft | 116 kts | 296° |
| 2026-04-18 05:42 | -29.04797 | 167.95103 | 544 ft | 118 kts | 296° |
| 2026-04-18 05:42 | -29.04369 | 167.94304 | 396 ft | 114 kts | 296° |
| 2026-04-18 05:43 | -29.04001 | 167.93608 | 339 ft | 81 kts | 302° |
| 2026-04-18 05:43 | -29.03827 | 167.93283 | 315 ft | 6 kts | 303° |
| 2026-04-18 05:43 | -29.03826 | 167.93280 | 315 ft | 0 kts | 304° |
| 2026-04-18 05:44 | -29.03818 | 167.93263 | 313 ft | 2 kts | 315° |
| 2026-04-18 05:44 | -29.03807 | 167.93282 | 314 ft | 7 kts | 106° |
| 2026-04-18 05:44 | -29.03852 | 167.93355 | 319 ft | 14 kts | 128° |
| 2026-04-18 05:44 | -29.03915 | 167.93460 | 326 ft | 16 kts | 123° |
| 2026-04-18 05:45 | -29.03970 | 167.93562 | 334 ft | 13 kts | 122° |
| 2026-04-18 05:45 | -29.04015 | 167.93642 | 342 ft | 10 kts | 123° |
| 2026-04-18 05:45 | -29.04065 | 167.93735 | 349 ft | 16 kts | 123° |
| 2026-04-18 05:45 | -29.04121 | 167.93837 | 356 ft | 13 kts | 121° |
| 2026-04-18 05:46 | -29.04161 | 167.93926 | 362 ft | 12 kts | 110° |
| 2026-04-18 05:46 | -29.04147 | 167.94006 | 365 ft | 10 kts | 53° |
| 2026-04-18 05:46 | -29.04092 | 167.94081 | 365 ft | 13 kts | 47° |
| 2026-04-18 05:46 | -29.04030 | 167.94162 | 366 ft | 13 kts | 50° |
| 2026-04-18 05:47 | -29.03967 | 167.94249 | 366 ft | 14 kts | 50° |
| 2026-04-18 05:47 | -29.03885 | 167.94313 | 366 ft | 14 kts | 11° |
| 2026-04-18 05:47 | -29.03795 | 167.94331 | 367 ft | 11 kts | 11° |
| 2026-04-18 05:47 | -29.03726 | 167.94347 | 368 ft | 9 kts | 10° |
| 2026-04-18 05:48 | -29.03666 | 167.94360 | 369 ft | 8 kts | 10° |
| 2026-04-18 05:48 | -29.03620 | 167.94353 | 370 ft | 5 kts | 335° |
| 2026-04-18 05:48 | -29.03589 | 167.94336 | 371 ft | 3 kts | 336° |
| 2026-04-18 05:48 | -29.03588 | 167.94336 | 371 ft | 0 kts | 336° |